sensor_id;sensor_type;location;lat;lon;timestamp;pressure;altitude;pressure_sealevel;temperature;humidity
20620;BME280;10469;42.720;23.252;2023-05-27T00:00:13;94968.41;;;14.37;100.00
20620;BME280;10469;42.720;23.252;2023-05-27T00:02:38;94976.41;;;14.54;100.00
20620;BME280;10469;42.720;23.252;2023-05-27T00:05:04;94980.72;;;14.23;100.00
20620;BME280;10469;42.720;23.252;2023-05-27T00:07:30;94999.97;;;14.04;100.00
20620;BME280;10469;42.720;23.252;2023-05-27T00:09:56;94997.22;;;13.99;100.00
20620;BME280;10469;42.720;23.252;2023-05-27T00:12:22;94994.25;;;14.01;100.00
20620;BME280;10469;42.720;23.252;2023-05-27T00:14:47;94986.72;;;14.03;100.00
20620;BME280;10469;42.720;23.252;2023-05-27T00:17:13;94966.19;;;13.97;100.00
20620;BME280;10469;42.720;23.252;2023-05-27T00:19:39;94985.56;;;14.21;100.00
20620;BME280;10469;42.720;23.252;2023-05-27T00:22:06;94983.06;;;14.14;100.00
20620;BME280;10469;42.720;23.252;2023-05-27T00:24:33;94995.47;;;14.15;100.00
20620;BME280;10469;42.720;23.252;2023-05-27T00:26:59;94969.50;;;14.04;100.00
20620;BME280;10469;42.720;23.252;2023-05-27T00:29:25;94986.38;;;14.21;100.00
20620;BME280;10469;42.720;23.252;2023-05-27T00:31:50;94991.13;;;14.09;100.00
20620;BME280;10469;42.720;23.252;2023-05-27T00:34:16;94977.13;;;14.12;100.00
20620;BME280;10469;42.720;23.252;2023-05-27T00:36:41;94991.19;;;14.19;100.00
20620;BME280;10469;42.720;23.252;2023-05-27T00:39:07;94981.91;;;14.05;100.00
20620;BME280;10469;42.720;23.252;2023-05-27T00:41:32;94986.34;;;14.16;100.00
20620;BME280;10469;42.720;23.252;2023-05-27T00:43:58;94977.38;;;14.11;100.00
20620;BME280;10469;42.720;23.252;2023-05-27T00:46:24;94980.09;;;14.16;100.00
20620;BME280;10469;42.720;23.252;2023-05-27T00:48:50;94967.91;;;14.08;100.00
20620;BME280;10469;42.720;23.252;2023-05-27T00:51:15;94961.88;;;13.96;100.00
20620;BME280;10469;42.720;23.252;2023-05-27T00:53:42;94959.19;;;13.96;100.00
20620;BME280;10469;42.720;23.252;2023-05-27T00:56:12;94971.28;;;13.93;100.00
20620;BME280;10469;42.720;23.252;2023-05-27T00:58:43;94958.69;;;13.99;100.00
20620;BME280;10469;42.720;23.252;2023-05-27T01:01:08;94922.81;;;13.71;100.00
20620;BME280;10469;42.720;23.252;2023-05-27T01:03:34;94951.63;;;13.98;100.00
20620;BME280;10469;42.720;23.252;2023-05-27T01:06:31;94952.75;;;14.02;100.00
20620;BME280;10469;42.720;23.252;2023-05-27T01:09:24;94958.69;;;13.99;100.00
20620;BME280;10469;42.720;23.252;2023-05-27T01:14:30;94933.69;;;13.81;100.00
20620;BME280;10469;42.720;23.252;2023-05-27T01:16:57;94939.19;;;13.92;100.00
20620;BME280;10469;42.720;23.252;2023-05-27T01:19:37;94934.13;;;14.00;100.00
20620;BME280;10469;42.720;23.252;2023-05-27T01:22:09;94914.19;;;14.01;100.00
20620;BME280;10469;42.720;23.252;2023-05-27T01:24:36;94912.22;;;13.92;100.00
20620;BME280;10469;42.720;23.252;2023-05-27T01:27:02;94905.47;;;13.89;100.00
20620;BME280;10469;42.720;23.252;2023-05-27T01:29:29;94922.56;;;14.00;100.00
20620;BME280;10469;42.720;23.252;2023-05-27T01:34:48;94910.72;;;14.06;100.00
20620;BME280;10469;42.720;23.252;2023-05-27T01:37:19;94893.69;;;14.00;100.00
20620;BME280;10469;42.720;23.252;2023-05-27T01:39:49;94908.00;;;14.01;100.00
20620;BME280;10469;42.720;23.252;2023-05-27T01:42:15;94895.03;;;13.98;100.00
20620;BME280;10469;42.720;23.252;2023-05-27T01:44:42;94900.78;;;13.79;100.00
20620;BME280;10469;42.720;23.252;2023-05-27T01:47:08;94913.31;;;13.64;100.00
20620;BME280;10469;42.720;23.252;2023-05-27T01:49:34;94901.06;;;13.51;100.00
20620;BME280;10469;42.720;23.252;2023-05-27T01:52:00;94903.38;;;13.42;100.00
20620;BME280;10469;42.720;23.252;2023-05-27T01:54:26;94898.09;;;13.25;100.00
20620;BME280;10469;42.720;23.252;2023-05-27T01:56:52;94910.81;;;13.30;100.00
20620;BME280;10469;42.720;23.252;2023-05-27T01:59:17;94928.78;;;13.24;100.00
20620;BME280;10469;42.720;23.252;2023-05-27T02:01:43;94917.78;;;13.26;100.00
20620;BME280;10469;42.720;23.252;2023-05-27T02:04:08;94902.53;;;13.15;100.00
20620;BME280;10469;42.720;23.252;2023-05-27T02:06:34;94908.84;;;13.25;100.00
20620;BME280;10469;42.720;23.252;2023-05-27T02:08:59;94911.91;;;13.12;100.00
20620;BME280;10469;42.720;23.252;2023-05-27T02:11:25;94914.91;;;13.16;100.00
20620;BME280;10469;42.720;23.252;2023-05-27T02:13:51;94914.03;;;13.10;100.00
20620;BME280;10469;42.720;23.252;2023-05-27T02:16:17;94915.34;;;13.07;100.00
20620;BME280;10469;42.720;23.252;2023-05-27T02:18:47;94911.41;;;13.15;100.00
20620;BME280;10469;42.720;23.252;2023-05-27T02:21:14;94922.09;;;13.27;100.00
20620;BME280;10469;42.720;23.252;2023-05-27T02:23:40;94915.88;;;13.26;100.00
20620;BME280;10469;42.720;23.252;2023-05-27T02:26:05;94917.56;;;13.33;100.00
20620;BME280;10469;42.720;23.252;2023-05-27T02:28:31;94913.50;;;13.30;100.00
20620;BME280;10469;42.720;23.252;2023-05-27T02:30:57;94923.75;;;13.33;100.00
20620;BME280;10469;42.720;23.252;2023-05-27T02:33:23;94920.81;;;13.13;100.00
20620;BME280;10469;42.720;23.252;2023-05-27T02:35:49;94920.81;;;13.13;100.00
20620;BME280;10469;42.720;23.252;2023-05-27T02:38:14;94923.44;;;13.29;100.00
20620;BME280;10469;42.720;23.252;2023-05-27T02:40:40;94919.00;;;13.40;100.00
20620;BME280;10469;42.720;23.252;2023-05-27T02:43:06;94928.38;;;13.16;100.00
20620;BME280;10469;42.720;23.252;2023-05-27T02:45:31;94932.41;;;13.13;100.00
20620;BME280;10469;42.720;23.252;2023-05-27T02:47:57;94925.94;;;13.14;100.00
20620;BME280;10469;42.720;23.252;2023-05-27T02:50:26;94923.19;;;13.09;100.00
20620;BME280;10469;42.720;23.252;2023-05-27T02:52:52;94919.50;;;13.15;100.00
20620;BME280;10469;42.720;23.252;2023-05-27T02:55:17;94916.63;;;13.00;100.00
20620;BME280;10469;42.720;23.252;2023-05-27T02:57:43;94931.75;;;13.06;100.00
20620;BME280;10469;42.720;23.252;2023-05-27T03:00:09;94922.75;;;13.17;100.00
20620;BME280;10469;42.720;23.252;2023-05-27T03:02:34;94928.34;;;13.33;100.00
20620;BME280;10469;42.720;23.252;2023-05-27T03:05:00;94916.44;;;13.28;100.00
20620;BME280;10469;42.720;23.252;2023-05-27T03:07:27;94929.59;;;13.25;100.00
20620;BME280;10469;42.720;23.252;2023-05-27T03:09:54;94923.19;;;13.09;100.00
20620;BME280;10469;42.720;23.252;2023-05-27T03:12:21;94928.69;;;13.19;100.00
20620;BME280;10469;42.720;23.252;2023-05-27T03:14:46;94926.44;;;13.33;100.00
20620;BME280;10469;42.720;23.252;2023-05-27T03:17:12;94915.94;;;13.32;100.00
20620;BME280;10469;42.720;23.252;2023-05-27T03:19:37;94921.38;;;13.37;100.00
20620;BME280;10469;42.720;23.252;2023-05-27T03:22:03;94928.97;;;13.40;100.00
20620;BME280;10469;42.720;23.252;2023-05-27T03:24:28;94929.06;;;13.50;100.00
20620;BME280;10469;42.720;23.252;2023-05-27T03:26:54;94927.63;;;13.42;100.00
20620;BME280;10469;42.720;23.252;2023-05-27T03:29:19;94929.69;;;13.57;100.00
20620;BME280;10469;42.720;23.252;2023-05-27T03:31:45;94925.28;;;13.51;100.00
20620;BME280;10469;42.720;23.252;2023-05-27T03:34:10;94920.25;;;13.60;100.00
20620;BME280;10469;42.720;23.252;2023-05-27T03:36:36;94922.25;;;13.42;100.00
20620;BME280;10469;42.720;23.252;2023-05-27T03:39:03;94923.94;;;13.48;100.00
20620;BME280;10469;42.720;23.252;2023-05-27T03:41:30;94924.56;;;13.34;100.00
20620;BME280;10469;42.720;23.252;2023-05-27T03:43:56;94931.84;;;13.33;100.00
20620;BME280;10469;42.720;23.252;2023-05-27T03:46:22;94934.25;;;13.57;100.00
20620;BME280;10469;42.720;23.252;2023-05-27T03:48:47;94924.47;;;13.50;100.00
20620;BME280;10469;42.720;23.252;2023-05-27T03:51:13;94942.41;;;13.62;100.00
20620;BME280;10469;42.720;23.252;2023-05-27T03:53:38;94939.25;;;13.43;100.00
20620;BME280;10469;42.720;23.252;2023-05-27T03:56:05;94945.19;;;13.45;100.00
20620;BME280;10469;42.720;23.252;2023-05-27T03:58:30;94944.88;;;13.68;100.00
20620;BME280;10469;42.720;23.252;2023-05-27T04:00:56;94926.91;;;13.74;100.00
20620;BME280;10469;42.720;23.252;2023-05-27T04:03:21;94940.25;;;13.91;100.00
20620;BME280;10469;42.720;23.252;2023-05-27T04:05:47;94936.59;;;14.07;100.00
20620;BME280;10469;42.720;23.252;2023-05-27T04:08:12;94914.00;;;14.08;100.00
20620;BME280;10469;42.720;23.252;2023-05-27T04:10:39;94930.31;;;14.28;100.00
20620;BME280;10469;42.720;23.252;2023-05-27T04:13:04;94926.50;;;14.57;100.00
20620;BME280;10469;42.720;23.252;2023-05-27T04:15:30;94934.88;;;14.55;100.00
20620;BME280;10469;42.720;23.252;2023-05-27T04:17:55;94921.84;;;14.47;100.00
20620;BME280;10469;42.720;23.252;2023-05-27T04:20:21;94921.94;;;14.62;100.00
20620;BME280;10469;42.720;23.252;2023-05-27T04:22:47;94921.50;;;14.80;100.00
20620;BME280;10469;42.720;23.252;2023-05-27T04:25:13;94917.06;;;14.59;100.00
20620;BME280;10469;42.720;23.252;2023-05-27T04:27:38;94918.53;;;14.40;100.00
20620;BME280;10469;42.720;23.252;2023-05-27T04:30:06;94910.25;;;14.94;100.00
20620;BME280;10469;42.720;23.252;2023-05-27T04:32:32;94922.94;;;14.93;100.00
20620;BME280;10469;42.720;23.252;2023-05-27T04:35:07;94924.44;;;15.26;100.00
20620;BME280;10469;42.720;23.252;2023-05-27T04:37:37;94916.50;;;15.83;100.00
20620;BME280;10469;42.720;23.252;2023-05-27T04:40:03;94903.25;;;16.27;100.00
20620;BME280;10469;42.720;23.252;2023-05-27T04:42:29;94920.56;;;16.56;100.00
20620;BME280;10469;42.720;23.252;2023-05-27T04:44:54;94909.47;;;16.78;100.00
20620;BME280;10469;42.720;23.252;2023-05-27T04:47:20;94899.72;;;16.67;100.00
20620;BME280;10469;42.720;23.252;2023-05-27T04:49:46;94915.19;;;16.26;100.00
20620;BME280;10469;42.720;23.252;2023-05-27T04:52:12;94913.25;;;16.62;100.00
20620;BME280;10469;42.720;23.252;2023-05-27T04:54:38;94913.47;;;16.96;100.00
20620;BME280;10469;42.720;23.252;2023-05-27T04:57:03;94909.41;;;16.99;100.00
20620;BME280;10469;42.720;23.252;2023-05-27T04:59:29;94915.94;;;16.88;100.00
20620;BME280;10469;42.720;23.252;2023-05-27T05:02:12;94917.81;;;16.87;100.00
20620;BME280;10469;42.720;23.252;2023-05-27T05:04:47;94900.78;;;16.61;100.00
20620;BME280;10469;42.720;23.252;2023-05-27T05:07:12;94895.41;;;16.51;100.00
20620;BME280;10469;42.720;23.252;2023-05-27T05:09:38;94896.75;;;16.59;100.00
20620;BME280;10469;42.720;23.252;2023-05-27T05:12:03;94908.34;;;16.95;100.00
20620;BME280;10469;42.720;23.252;2023-05-27T05:14:30;94912.66;;;17.06;100.00
20620;BME280;10469;42.720;23.252;2023-05-27T05:16:55;94922.69;;;16.90;100.00
20620;BME280;10469;42.720;23.252;2023-05-27T05:19:21;94897.47;;;17.00;100.00
20620;BME280;10469;42.720;23.252;2023-05-27T05:21:46;94912.78;;;17.40;100.00
20620;BME280;10469;42.720;23.252;2023-05-27T05:24:12;94907.16;;;17.21;100.00
20620;BME280;10469;42.720;23.252;2023-05-27T05:26:37;94925.69;;;16.84;100.00
20620;BME280;10469;42.720;23.252;2023-05-27T05:29:03;94905.25;;;17.22;100.00
20620;BME280;10469;42.720;23.252;2023-05-27T05:31:28;94915.28;;;17.21;100.00
20620;BME280;10469;42.720;23.252;2023-05-27T05:33:54;94909.47;;;16.53;100.00
20620;BME280;10469;42.720;23.252;2023-05-27T05:36:19;94926.53;;;16.02;100.00
20620;BME280;10469;42.720;23.252;2023-05-27T05:38:52;94939.25;;;16.68;100.00
20620;BME280;10469;42.720;23.252;2023-05-27T05:41:17;94939.69;;;17.16;100.00
20620;BME280;10469;42.720;23.252;2023-05-27T05:43:43;94931.13;;;16.78;100.00
20620;BME280;10469;42.720;23.252;2023-05-27T05:46:08;94940.84;;;16.90;100.00
20620;BME280;10469;42.720;23.252;2023-05-27T05:48:34;94940.81;;;17.10;100.00
20620;BME280;10469;42.720;23.252;2023-05-27T05:50:59;94954.53;;;17.34;100.00
20620;BME280;10469;42.720;23.252;2023-05-27T05:53:26;94938.72;;;16.76;100.00
20620;BME280;10469;42.720;23.252;2023-05-27T05:55:51;94953.59;;;16.89;100.00
20620;BME280;10469;42.720;23.252;2023-05-27T05:58:17;94946.84;;;16.46;100.00
20620;BME280;10469;42.720;23.252;2023-05-27T06:00:43;94948.16;;;16.94;100.00
20620;BME280;10469;42.720;23.252;2023-05-27T06:03:08;94953.34;;;16.24;100.00
20620;BME280;10469;42.720;23.252;2023-05-27T06:05:34;94955.44;;;17.04;100.00
20620;BME280;10469;42.720;23.252;2023-05-27T06:07:59;94937.47;;;17.34;100.00
20620;BME280;10469;42.720;23.252;2023-05-27T06:10:25;94944.91;;;16.92;100.00
20620;BME280;10469;42.720;23.252;2023-05-27T06:12:50;94942.50;;;16.55;100.00
20620;BME280;10469;42.720;23.252;2023-05-27T06:15:16;94959.53;;;16.91;100.00
20620;BME280;10469;42.720;23.252;2023-05-27T06:17:41;94943.56;;;16.69;100.00
20620;BME280;10469;42.720;23.252;2023-05-27T06:20:07;94957.41;;;16.63;100.00
20620;BME280;10469;42.720;23.252;2023-05-27T06:22:32;94939.22;;;16.84;100.00
20620;BME280;10469;42.720;23.252;2023-05-27T06:24:58;94956.25;;;17.15;100.00
20620;BME280;10469;42.720;23.252;2023-05-27T06:27:23;94963.81;;;17.13;100.00
20620;BME280;10469;42.720;23.252;2023-05-27T06:29:49;94971.97;;;16.92;100.00
20620;BME280;10469;42.720;23.252;2023-05-27T06:32:14;94961.72;;;16.84;100.00
20620;BME280;10469;42.720;23.252;2023-05-27T06:34:40;94960.38;;;16.46;100.00
20620;BME280;10469;42.720;23.252;2023-05-27T06:37:05;94964.44;;;16.43;100.00
20620;BME280;10469;42.720;23.252;2023-05-27T06:39:31;94975.53;;;16.93;100.00
20620;BME280;10469;42.720;23.252;2023-05-27T06:41:58;94974.38;;;17.19;100.00
20620;BME280;10469;42.720;23.252;2023-05-27T06:44:23;94975.97;;;17.25;100.00
20620;BME280;10469;42.720;23.252;2023-05-27T06:46:49;94971.25;;;18.11;100.00
20620;BME280;10469;42.720;23.252;2023-05-27T06:49:14;94961.00;;;18.03;100.00
20620;BME280;10469;42.720;23.252;2023-05-27T06:51:40;94974.31;;;17.99;100.00
20620;BME280;10469;42.720;23.252;2023-05-27T06:54:06;94968.06;;;17.99;100.00
20620;BME280;10469;42.720;23.252;2023-05-27T06:56:31;94973.94;;;17.56;100.00
20620;BME280;10469;42.720;23.252;2023-05-27T06:58:57;94969.84;;;17.64;100.00
20620;BME280;10469;42.720;23.252;2023-05-27T07:01:22;94961.22;;;17.57;100.00
20620;BME280;10469;42.720;23.252;2023-05-27T07:03:48;94966.97;;;18.00;100.00
20620;BME280;10469;42.720;23.252;2023-05-27T07:06:13;94966.88;;;17.61;100.00
20620;BME280;10469;42.720;23.252;2023-05-27T07:08:39;94979.47;;;18.01;100.00
20620;BME280;10469;42.720;23.252;2023-05-27T07:11:04;94973.25;;;18.40;100.00
20620;BME280;10469;42.720;23.252;2023-05-27T07:13:30;94974.38;;;18.68;100.00
20620;BME280;10469;42.720;23.252;2023-05-27T07:15:55;94937.22;;;17.90;100.00
20620;BME280;10469;42.720;23.252;2023-05-27T07:18:21;94963.25;;;17.91;100.00
20620;BME280;10469;42.720;23.252;2023-05-27T07:20:47;94967.56;;;17.97;100.00
20620;BME280;10469;42.720;23.252;2023-05-27T07:23:12;94969.22;;;17.93;100.00
20620;BME280;10469;42.720;23.252;2023-05-27T07:25:38;94975.81;;;18.21;100.00
20620;BME280;10469;42.720;23.252;2023-05-27T07:28:03;94972.88;;;18.12;100.00
20620;BME280;10469;42.720;23.252;2023-05-27T07:30:29;94962.53;;;18.19;100.00
20620;BME280;10469;42.720;23.252;2023-05-27T07:32:56;94964.66;;;18.56;100.00
20620;BME280;10469;42.720;23.252;2023-05-27T07:35:21;94974.56;;;18.03;100.00
20620;BME280;10469;42.720;23.252;2023-05-27T07:37:47;94981.63;;;17.99;100.00
20620;BME280;10469;42.720;23.252;2023-05-27T07:40:12;94973.03;;;18.31;100.00
20620;BME280;10469;42.720;23.252;2023-05-27T07:42:38;94964.63;;;18.96;100.00
20620;BME280;10469;42.720;23.252;2023-05-27T07:45:04;94978.34;;;18.46;100.00
20620;BME280;10469;42.720;23.252;2023-05-27T07:47:29;94973.34;;;18.59;100.00
20620;BME280;10469;42.720;23.252;2023-05-27T07:49:55;94978.09;;;18.43;100.00
20620;BME280;10469;42.720;23.252;2023-05-27T07:52:20;94975.91;;;18.45;100.00
20620;BME280;10469;42.720;23.252;2023-05-27T07:54:46;94974.94;;;18.70;100.00
20620;BME280;10469;42.720;23.252;2023-05-27T07:57:12;94981.63;;;18.77;100.00
20620;BME280;10469;42.720;23.252;2023-05-27T07:59:39;94969.28;;;18.56;100.00
20620;BME280;10469;42.720;23.252;2023-05-27T08:02:05;94976.94;;;18.88;100.00
20620;BME280;10469;42.720;23.252;2023-05-27T08:04:31;94968.84;;;18.78;100.00
20620;BME280;10469;42.720;23.252;2023-05-27T08:06:56;94974.69;;;18.61;100.00
20620;BME280;10469;42.720;23.252;2023-05-27T08:09:22;94971.06;;;18.76;100.00
20620;BME280;10469;42.720;23.252;2023-05-27T08:11:47;94987.44;;;18.66;100.00
20620;BME280;10469;42.720;23.252;2023-05-27T08:14:13;94981.91;;;18.42;100.00
20620;BME280;10469;42.720;23.252;2023-05-27T08:16:38;94976.94;;;18.54;100.00
20620;BME280;10469;42.720;23.252;2023-05-27T08:19:04;94971.03;;;18.42;100.00
20620;BME280;10469;42.720;23.252;2023-05-27T08:21:29;94959.56;;;18.50;100.00
20620;BME280;10469;42.720;23.252;2023-05-27T08:23:55;94976.25;;;18.72;100.00
20620;BME280;10469;42.720;23.252;2023-05-27T08:26:21;94964.81;;;18.75;100.00
20620;BME280;10469;42.720;23.252;2023-05-27T08:28:49;94973.13;;;18.89;100.00
20620;BME280;10469;42.720;23.252;2023-05-27T08:31:14;94978.97;;;19.01;100.00
20620;BME280;10469;42.720;23.252;2023-05-27T08:33:40;94982.69;;;19.59;100.00
20620;BME280;10469;42.720;23.252;2023-05-27T08:36:06;94974.22;;;19.12;100.00
20620;BME280;10469;42.720;23.252;2023-05-27T08:38:31;94980.75;;;18.48;100.00
20620;BME280;10469;42.720;23.252;2023-05-27T08:40:58;94980.97;;;18.56;100.00
20620;BME280;10469;42.720;23.252;2023-05-27T08:43:24;94981.63;;;18.83;100.00
20620;BME280;10469;42.720;23.252;2023-05-27T08:45:50;94978.88;;;19.12;100.00
20620;BME280;10469;42.720;23.252;2023-05-27T08:48:15;94986.94;;;19.46;100.00
20620;BME280;10469;42.720;23.252;2023-05-27T08:50:41;94981.06;;;19.10;100.00
20620;BME280;10469;42.720;23.252;2023-05-27T08:53:06;94982.34;;;19.17;100.00
20620;BME280;10469;42.720;23.252;2023-05-27T08:55:34;94977.38;;;19.00;100.00
20620;BME280;10469;42.720;23.252;2023-05-27T08:58:03;94976.81;;;18.69;100.00
20620;BME280;10469;42.720;23.252;2023-05-27T09:00:30;94975.72;;;18.99;100.00
20620;BME280;10469;42.720;23.252;2023-05-27T09:02:56;94968.66;;;19.27;100.00
20620;BME280;10469;42.720;23.252;2023-05-27T09:05:25;94968.28;;;19.34;100.00
20620;BME280;10469;42.720;23.252;2023-05-27T09:07:51;94970.09;;;18.91;100.00
20620;BME280;10469;42.720;23.252;2023-05-27T09:10:17;94966.13;;;19.07;100.00
20620;BME280;10469;42.720;23.252;2023-05-27T09:12:44;94967.19;;;18.82;100.00
20620;BME280;10469;42.720;23.252;2023-05-27T09:15:13;94966.16;;;19.31;100.00
20620;BME280;10469;42.720;23.252;2023-05-27T09:17:46;94966.00;;;19.22;100.00
20620;BME280;10469;42.720;23.252;2023-05-27T09:20:11;94963.78;;;19.48;100.00
20620;BME280;10469;42.720;23.252;2023-05-27T09:22:38;94966.63;;;19.14;100.00
20620;BME280;10469;42.720;23.252;2023-05-27T09:25:04;94951.84;;;19.68;100.00
20620;BME280;10469;42.720;23.252;2023-05-27T09:27:31;94963.97;;;19.57;100.00
20620;BME280;10469;42.720;23.252;2023-05-27T09:29:58;94955.09;;;20.46;100.00
20620;BME280;10469;42.720;23.252;2023-05-27T09:32:32;94957.19;;;20.54;100.00
20620;BME280;10469;42.720;23.252;2023-05-27T09:34:58;94951.72;;;20.16;100.00
20620;BME280;10469;42.720;23.252;2023-05-27T09:39:57;94945.06;;;20.09;100.00
20620;BME280;10469;42.720;23.252;2023-05-27T09:42:23;94953.31;;;19.37;100.00
20620;BME280;10469;42.720;23.252;2023-05-27T09:44:49;94951.00;;;19.49;100.00
20620;BME280;10469;42.720;23.252;2023-05-27T09:47:16;94943.69;;;19.20;100.00
20620;BME280;10469;42.720;23.252;2023-05-27T09:49:45;94945.09;;;19.42;100.00
20620;BME280;10469;42.720;23.252;2023-05-27T09:52:13;94947.38;;;19.35;100.00
20620;BME280;10469;42.720;23.252;2023-05-27T09:54:43;94943.88;;;19.29;100.00
20620;BME280;10469;42.720;23.252;2023-05-27T09:57:10;94939.53;;;19.76;100.00
20620;BME280;10469;42.720;23.252;2023-05-27T09:59:37;94942.47;;;20.36;100.00
20620;BME280;10469;42.720;23.252;2023-05-27T10:02:02;94932.16;;;20.33;100.00
20620;BME280;10469;42.720;23.252;2023-05-27T10:04:30;94933.94;;;20.75;100.00
20620;BME280;10469;42.720;23.252;2023-05-27T10:06:56;94935.25;;;20.64;100.00
20620;BME280;10469;42.720;23.252;2023-05-27T10:09:22;94934.03;;;21.30;100.00
20620;BME280;10469;42.720;23.252;2023-05-27T10:11:49;94939.25;;;21.13;100.00
20620;BME280;10469;42.720;23.252;2023-05-27T10:14:15;94924.94;;;21.76;100.00
20620;BME280;10469;42.720;23.252;2023-05-27T10:16:51;94912.63;;;22.83;100.00
20620;BME280;10469;42.720;23.252;2023-05-27T10:19:16;94923.16;;;23.29;100.00
20620;BME280;10469;42.720;23.252;2023-05-27T10:21:44;94912.97;;;23.12;100.00
20620;BME280;10469;42.720;23.252;2023-05-27T10:24:11;94920.47;;;22.98;100.00
20620;BME280;10469;42.720;23.252;2023-05-27T10:26:41;94914.09;;;23.60;100.00
20620;BME280;10469;42.720;23.252;2023-05-27T10:31:34;94916.06;;;25.15;100.00
20620;BME280;10469;42.720;23.252;2023-05-27T10:34:04;94910.16;;;24.87;100.00
20620;BME280;10469;42.720;23.252;2023-05-27T10:36:31;94896.09;;;26.99;92.97
20620;BME280;10469;42.720;23.252;2023-05-27T10:41:39;94894.19;;;26.46;93.35
20620;BME280;10469;42.720;23.252;2023-05-27T10:44:05;94892.56;;;25.82;94.33
20620;BME280;10469;42.720;23.252;2023-05-27T10:46:38;94894.38;;;24.75;100.00
20620;BME280;10469;42.720;23.252;2023-05-27T10:49:10;94901.16;;;24.00;99.15
20620;BME280;10469;42.720;23.252;2023-05-27T10:51:36;94896.59;;;23.78;100.00
20620;BME280;10469;42.720;23.252;2023-05-27T10:54:05;94891.06;;;23.61;100.00
20620;BME280;10469;42.720;23.252;2023-05-27T10:56:32;94897.59;;;24.77;100.00
20620;BME280;10469;42.720;23.252;2023-05-27T10:59:00;94885.88;;;22.48;100.00
20620;BME280;10469;42.720;23.252;2023-05-27T11:01:28;94894.50;;;22.64;100.00
20620;BME280;10469;42.720;23.252;2023-05-27T11:03:59;94885.97;;;21.85;100.00
20620;BME280;10469;42.720;23.252;2023-05-27T11:06:24;94886.72;;;22.58;100.00
20620;BME280;10469;42.720;23.252;2023-05-27T11:08:50;94888.78;;;21.29;100.00
20620;BME280;10469;42.720;23.252;2023-05-27T11:11:15;94888.47;;;21.17;100.00
20620;BME280;10469;42.720;23.252;2023-05-27T11:13:43;94883.00;;;21.17;100.00
20620;BME280;10469;42.720;23.252;2023-05-27T11:16:09;94876.44;;;21.04;100.00
20620;BME280;10469;42.720;23.252;2023-05-27T11:18:45;94867.88;;;21.52;100.00
20620;BME280;10469;42.720;23.252;2023-05-27T11:21:12;94867.69;;;22.44;100.00
20620;BME280;10469;42.720;23.252;2023-05-27T11:23:46;94847.28;;;23.03;100.00
20620;BME280;10469;42.720;23.252;2023-05-27T11:26:22;94861.84;;;21.78;100.00
20620;BME280;10469;42.720;23.252;2023-05-27T11:28:53;94865.25;;;21.84;100.00
20620;BME280;10469;42.720;23.252;2023-05-27T11:31:26;94820.16;;;21.50;100.00
20620;BME280;10469;42.720;23.252;2023-05-27T11:33:52;94842.19;;;21.53;100.00
20620;BME280;10469;42.720;23.252;2023-05-27T11:36:19;94852.59;;;20.36;100.00
20620;BME280;10469;42.720;23.252;2023-05-27T11:39:00;94826.81;;;20.47;100.00
20620;BME280;10469;42.720;23.252;2023-05-27T11:41:28;94857.63;;;20.75;100.00
20620;BME280;10469;42.720;23.252;2023-05-27T11:44:03;94850.09;;;20.40;100.00
20620;BME280;10469;42.720;23.252;2023-05-27T11:46:40;94853.66;;;20.21;100.00
20620;BME280;10469;42.720;23.252;2023-05-27T11:49:07;94859.78;;;20.46;100.00
20620;BME280;10469;42.720;23.252;2023-05-27T11:51:34;94838.28;;;20.77;100.00
20620;BME280;10469;42.720;23.252;2023-05-27T11:54:02;94849.88;;;20.83;100.00
20620;BME280;10469;42.720;23.252;2023-05-27T11:56:28;94836.13;;;20.60;100.00
20620;BME280;10469;42.720;23.252;2023-05-27T11:58:57;94835.25;;;20.78;100.00
20620;BME280;10469;42.720;23.252;2023-05-27T12:01:23;94816.72;;;21.58;100.00
20620;BME280;10469;42.720;23.252;2023-05-27T12:03:49;94845.66;;;20.90;100.00
20620;BME280;10469;42.720;23.252;2023-05-27T12:06:14;94835.88;;;21.03;100.00
20620;BME280;10469;42.720;23.252;2023-05-27T12:08:43;94834.47;;;21.33;100.00
20620;BME280;10469;42.720;23.252;2023-05-27T12:11:09;94821.09;;;21.32;100.00
20620;BME280;10469;42.720;23.252;2023-05-27T12:13:35;94832.06;;;21.54;100.00
20620;BME280;10469;42.720;23.252;2023-05-27T12:16:00;94815.97;;;21.66;100.00
20620;BME280;10469;42.720;23.252;2023-05-27T12:18:28;94821.47;;;21.52;100.00
20620;BME280;10469;42.720;23.252;2023-05-27T12:20:54;94818.31;;;21.95;100.00
20620;BME280;10469;42.720;23.252;2023-05-27T12:23:19;94810.34;;;22.21;100.00
20620;BME280;10469;42.720;23.252;2023-05-27T12:25:45;94810.13;;;21.95;100.00
20620;BME280;10469;42.720;23.252;2023-05-27T12:28:11;94800.50;;;21.98;100.00
20620;BME280;10469;42.720;23.252;2023-05-27T12:30:37;94787.47;;;21.72;100.00
20620;BME280;10469;42.720;23.252;2023-05-27T12:33:05;94792.63;;;21.96;100.00
20620;BME280;10469;42.720;23.252;2023-05-27T12:35:32;94789.66;;;21.48;100.00
20620;BME280;10469;42.720;23.252;2023-05-27T12:37:59;94772.19;;;21.71;100.00
20620;BME280;10469;42.720;23.252;2023-05-27T12:40:25;94769.81;;;21.34;100.00
20620;BME280;10469;42.720;23.252;2023-05-27T12:42:51;94775.84;;;21.30;100.00
20620;BME280;10469;42.720;23.252;2023-05-27T12:45:17;94772.06;;;20.90;100.00
20620;BME280;10469;42.720;23.252;2023-05-27T12:47:43;94778.03;;;21.28;100.00
20620;BME280;10469;42.720;23.252;2023-05-27T12:50:08;94758.94;;;21.28;100.00